createdAt,value
2022-07-28T00:02:18.824Z,18.67
2022-07-28T00:04:49.925Z,18.61
2022-07-28T00:07:20.665Z,18.54
2022-07-28T00:09:54.474Z,18.46
2022-07-28T00:12:28.878Z,18.70
2022-07-28T00:15:00.294Z,20.02
2022-07-28T00:17:30.961Z,21.01
2022-07-28T00:20:02.829Z,20.68
2022-07-28T00:22:33.295Z,20.10
2022-07-28T00:25:05.006Z,19.68
2022-07-28T00:27:35.263Z,19.30
2022-07-28T00:30:06.628Z,18.99
2022-07-28T00:32:37.869Z,18.78
2022-07-28T00:35:09.293Z,18.72
2022-07-28T00:37:40.516Z,19.67
2022-07-28T00:40:12.428Z,20.68
2022-07-28T00:42:43.203Z,20.36
2022-07-28T00:45:14.129Z,19.78
2022-07-28T00:47:44.570Z,19.32
2022-07-28T00:50:16.664Z,19.04
2022-07-28T00:52:47.187Z,18.76
2022-07-28T00:55:18.174Z,18.50
2022-07-28T00:57:48.530Z,18.31
2022-07-28T01:00:19.993Z,18.21
2022-07-28T01:02:50.613Z,18.11
2022-07-28T01:05:43.856Z,18.02
2022-07-28T01:08:18.084Z,18.47
2022-07-28T01:10:53.575Z,19.93
2022-07-28T01:13:32.874Z,20.70
2022-07-28T01:16:05.711Z,20.19
2022-07-28T01:18:43.139Z,19.61
2022-07-28T01:21:17.069Z,19.20
2022-07-28T01:23:59.747Z,18.91
2022-07-28T01:26:40.173Z,18.70
2022-07-28T01:29:17.335Z,18.48
2022-07-28T01:31:51.075Z,18.28
2022-07-28T01:34:24.847Z,18.16
2022-07-28T01:36:58.919Z,18.08
2022-07-28T01:39:31.805Z,18.02
2022-07-28T01:42:03.806Z,18.75
2022-07-28T01:44:36.585Z,20.14
2022-07-28T01:47:08.080Z,20.93
2022-07-28T01:49:39.139Z,20.50
2022-07-28T01:52:10.483Z,19.91
2022-07-28T01:54:43.786Z,19.49
2022-07-28T01:57:15.763Z,19.21
2022-07-28T01:59:46.780Z,18.99
2022-07-28T02:02:19.048Z,18.82
2022-07-28T02:04:51.630Z,18.68
2022-07-28T02:07:23.926Z,18.53
2022-07-28T02:09:54.859Z,18.40
2022-07-28T02:12:26.795Z,18.27
2022-07-28T02:14:58.436Z,18.19
2022-07-28T02:17:31.139Z,18.13
2022-07-28T02:20:02.485Z,18.06
2022-07-28T02:22:34.489Z,18.00
2022-07-28T02:25:05.408Z,17.96
2022-07-28T02:27:37.715Z,17.93
2022-07-28T02:30:10.898Z,17.91
2022-07-28T02:32:44.476Z,18.23
2022-07-28T02:35:17.938Z,19.64
2022-07-28T02:37:53.684Z,20.61
2022-07-28T02:40:24.727Z,20.15
2022-07-28T02:42:56.116Z,19.60
2022-07-28T02:45:27.991Z,19.22
2022-07-28T02:48:02.452Z,18.97
2022-07-28T02:50:32.881Z,18.81
2022-07-28T02:53:15.273Z,18.66
2022-07-28T02:55:48.524Z,18.54
2022-07-28T02:58:21.325Z,18.41
2022-07-28T03:00:52.915Z,18.29
2022-07-28T03:03:24.037Z,18.18
2022-07-28T03:05:54.897Z,18.08
2022-07-28T03:08:25.732Z,17.99
2022-07-28T03:11:08.860Z,17.92
2022-07-28T03:13:39.777Z,18.20
2022-07-28T03:16:10.678Z,19.57
2022-07-28T03:18:41.568Z,20.48
2022-07-28T03:21:12.607Z,20.14
2022-07-28T03:23:44.460Z,19.59
2022-07-28T03:26:18.308Z,19.19
2022-07-28T03:28:52.174Z,18.88
2022-07-28T03:31:23.381Z,18.67
2022-07-28T03:33:54.427Z,18.49
2022-07-28T03:36:27.496Z,18.32
2022-07-28T03:39:00.663Z,18.19
2022-07-28T03:41:31.270Z,18.09
2022-07-28T03:44:03.130Z,18.01
2022-07-28T03:46:33.917Z,17.93
2022-07-28T03:49:08.741Z,17.87
2022-07-28T03:51:39.319Z,18.13
2022-07-28T03:54:10.660Z,19.49
2022-07-28T03:56:41.421Z,20.37
2022-07-28T03:59:12.957Z,20.04
2022-07-28T04:01:45.421Z,19.52
2022-07-28T04:04:17.871Z,19.14
2022-07-28T04:06:48.904Z,18.84
2022-07-28T04:09:19.784Z,18.62
2022-07-28T04:11:50.406Z,18.46
2022-07-28T04:14:21.526Z,18.32
2022-07-28T04:16:52.609Z,18.21
2022-07-28T04:19:23.634Z,18.14
2022-07-28T04:21:54.214Z,18.05
2022-07-28T04:24:24.930Z,17.96
2022-07-28T04:26:55.518Z,17.86
2022-07-28T04:29:27.141Z,17.79
2022-07-28T04:31:58.318Z,18.29
2022-07-28T04:34:29.467Z,19.74
2022-07-28T04:37:00.137Z,20.59
2022-07-28T04:39:31.751Z,20.19
2022-07-28T04:42:02.581Z,19.64
2022-07-28T04:44:33.488Z,19.25
2022-07-28T04:47:03.850Z,18.97
2022-07-28T04:49:35.748Z,18.69
2022-07-28T04:52:08.410Z,18.52
2022-07-28T04:54:39.936Z,18.36
2022-07-28T04:57:12.833Z,18.26
2022-07-28T04:59:46.262Z,18.15
2022-07-28T05:02:18.941Z,18.08
2022-07-28T05:04:49.839Z,18.07
2022-07-28T05:07:20.975Z,18.05
2022-07-28T05:09:51.560Z,18.04
2022-07-28T05:12:22.033Z,18.05
2022-07-28T05:14:52.599Z,18.05
2022-07-28T05:17:23.391Z,18.04
2022-07-28T05:19:54.308Z,17.98
2022-07-28T05:22:24.762Z,17.94
2022-07-28T05:24:55.436Z,17.95
2022-07-28T05:27:25.961Z,18.01
2022-07-28T05:29:56.492Z,18.07
2022-07-28T05:32:27.414Z,18.13
2022-07-28T05:34:59.618Z,18.19
2022-07-28T05:37:30.415Z,18.26
2022-07-28T05:40:00.891Z,18.30
2022-07-28T05:42:36.059Z,18.33
2022-07-28T05:45:15.579Z,18.32
2022-07-28T05:47:47.659Z,18.34
2022-07-28T05:50:18.901Z,18.41
2022-07-28T05:52:50.360Z,18.47
2022-07-28T05:55:21.206Z,18.54
2022-07-28T05:57:52.239Z,18.57
2022-07-28T06:00:23.984Z,18.58
2022-07-28T06:02:54.612Z,18.57
2022-07-28T06:05:25.650Z,18.53
2022-07-28T06:07:56.399Z,18.50
2022-07-28T06:10:28.272Z,18.51
2022-07-28T06:12:58.805Z,18.52
2022-07-28T06:15:30.576Z,18.49
2022-07-28T06:18:01.064Z,18.43
2022-07-28T06:20:31.798Z,18.38
2022-07-28T06:23:02.372Z,18.50
2022-07-28T06:25:33.619Z,19.70
2022-07-28T06:28:04.709Z,20.75
2022-07-28T06:30:35.486Z,20.38
2022-07-28T06:33:07.990Z,19.84
2022-07-28T06:35:46.652Z,19.47
2022-07-28T06:38:20.851Z,19.22
2022-07-28T06:40:51.894Z,19.08
2022-07-28T06:43:22.120Z,19.00
2022-07-28T06:45:52.830Z,18.96
2022-07-28T06:48:25.857Z,18.97
2022-07-28T06:51:00.085Z,18.99
2022-07-28T06:53:33.475Z,19.03
2022-07-28T06:56:06.094Z,19.08
2022-07-28T06:58:36.652Z,19.15
2022-07-28T07:01:09.153Z,19.22
2022-07-28T07:03:39.648Z,19.29
2022-07-28T07:06:11.415Z,19.38
2022-07-28T07:08:41.848Z,19.47
2022-07-28T07:11:13.695Z,19.60
2022-07-28T07:13:44.018Z,19.71
2022-07-28T07:16:15.047Z,19.84
2022-07-28T07:18:45.491Z,19.90
2022-07-28T07:21:16.429Z,19.98
2022-07-28T07:23:46.952Z,20.09
2022-07-28T07:26:17.993Z,20.15
2022-07-28T07:28:48.627Z,20.15
2022-07-28T07:31:19.567Z,20.12
2022-07-28T07:33:49.982Z,20.15
2022-07-28T07:36:20.927Z,20.27
2022-07-28T07:38:51.204Z,20.42
2022-07-28T07:41:22.596Z,20.54
2022-07-28T07:43:53.017Z,20.61
2022-07-28T07:46:24.357Z,20.71
2022-07-28T07:48:55.260Z,20.81
2022-07-28T07:51:26.243Z,20.92
2022-07-28T07:53:56.579Z,21.01
2022-07-28T07:56:27.444Z,21.06
2022-07-28T07:58:58.889Z,21.10
2022-07-28T08:01:30.171Z,21.17
2022-07-28T08:04:01.206Z,21.27
2022-07-28T08:06:34.331Z,21.36
2022-07-28T08:09:06.805Z,21.42
2022-07-28T08:11:37.514Z,21.51
2022-07-28T08:14:07.800Z,21.58
2022-07-28T08:16:38.387Z,21.67
2022-07-28T08:19:09.172Z,21.74
2022-07-28T08:21:39.754Z,21.84
2022-07-28T08:24:11.088Z,21.96
2022-07-28T08:26:48.608Z,22.11
2022-07-28T08:29:19.330Z,22.18
2022-07-28T08:31:50.039Z,22.19
2022-07-28T08:34:31.174Z,22.25
2022-07-28T08:37:04.839Z,22.28
2022-07-28T08:39:36.334Z,22.31
2022-07-28T08:42:08.094Z,22.37
2022-07-28T08:44:45.261Z,22.44
2022-07-28T08:47:17.228Z,22.49
2022-07-28T08:49:48.575Z,22.54
2022-07-28T08:52:21.423Z,22.63
2022-07-28T08:54:52.044Z,22.73
2022-07-28T08:57:24.075Z,22.80
2022-07-28T08:59:54.743Z,22.92
2022-07-28T09:02:26.565Z,23.02
2022-07-28T09:04:57.415Z,23.09
2022-07-28T09:07:28.379Z,23.18
2022-07-28T09:10:02.782Z,23.25
2022-07-28T09:12:34.542Z,23.31
2022-07-28T09:15:05.649Z,23.35
2022-07-28T09:17:37.198Z,23.41
2022-07-28T09:20:11.224Z,23.41
2022-07-28T09:25:42.149Z,23.54
2022-07-28T09:28:13.830Z,23.61
2022-07-28T09:30:53.261Z,23.71
2022-07-28T09:33:41.903Z,23.77
2022-07-28T09:36:17.209Z,23.82
2022-07-28T09:38:48.455Z,23.86
2022-07-28T09:41:22.458Z,23.91
2022-07-28T09:43:55.890Z,23.94
2022-07-28T09:46:29.714Z,23.93
2022-07-28T09:49:01.540Z,23.94
2022-07-28T09:51:33.895Z,23.92
2022-07-28T09:54:11.911Z,23.96
2022-07-28T09:56:44.294Z,24.08
2022-07-28T09:59:16.262Z,24.13
2022-07-28T10:01:53.840Z,24.18
2022-07-28T10:04:34.325Z,24.28
2022-07-28T10:07:07.089Z,24.38
2022-07-28T10:09:38.310Z,24.37
2022-07-28T10:12:19.526Z,24.44
2022-07-28T10:14:50.633Z,24.53
2022-07-28T10:17:30.735Z,24.48
2022-07-28T10:20:03.259Z,24.42
2022-07-28T10:22:37.279Z,24.48
2022-07-28T10:25:12.794Z,24.59
2022-07-28T10:27:44.018Z,24.68
2022-07-28T10:30:15.680Z,24.78
2022-07-28T10:32:47.098Z,24.86
2022-07-28T10:35:18.782Z,24.89
2022-07-28T10:37:52.905Z,24.95
2022-07-28T10:40:26.535Z,25.03
2022-07-28T10:42:57.360Z,25.09
2022-07-28T10:45:48.159Z,25.14
2022-07-28T10:48:20.895Z,25.19
2022-07-28T10:50:55.573Z,25.22
2022-07-28T10:53:32.854Z,25.24
2022-07-28T10:56:08.565Z,25.28
2022-07-28T10:58:46.344Z,25.30
2022-07-28T11:01:48.265Z,25.35
2022-07-28T11:04:37.054Z,25.41
2022-07-28T11:07:14.516Z,25.46
2022-07-28T11:09:45.457Z,25.49
2022-07-28T11:12:16.762Z,25.47
2022-07-28T11:14:47.538Z,25.44
2022-07-28T11:17:24.249Z,25.41
2022-07-28T11:22:49.296Z,25.54
2022-07-28T11:25:22.575Z,25.55
2022-07-28T11:28:04.678Z,25.58
2022-07-28T11:30:55.333Z,25.59
2022-07-28T11:33:27.690Z,25.56
2022-07-28T11:35:59.179Z,25.58
2022-07-28T11:38:30.124Z,25.61
2022-07-28T11:41:00.914Z,25.63
2022-07-28T11:43:37.485Z,25.71
2022-07-28T11:46:32.913Z,25.76
2022-07-28T11:49:21.147Z,25.78
2022-07-28T11:52:22.617Z,25.78
2022-07-28T11:54:55.577Z,25.79
2022-07-28T11:57:27.164Z,25.83
2022-07-28T12:00:02.042Z,25.91
2022-07-28T12:02:36.762Z,25.92
2022-07-28T12:05:12.161Z,25.98
2022-07-28T12:07:47.062Z,26.05
2022-07-28T12:13:29.501Z,26.15
2022-07-28T12:16:00.288Z,26.45
2022-07-28T12:18:31.673Z,27.10
2022-07-28T12:21:05.198Z,27.74
2022-07-28T12:23:46.030Z,28.28
2022-07-28T12:26:40.978Z,28.70
2022-07-28T12:29:14.601Z,28.92
2022-07-28T12:31:56.484Z,28.87
2022-07-28T12:34:28.793Z,28.71
2022-07-28T12:37:02.179Z,28.88
2022-07-28T12:39:34.728Z,29.28
2022-07-28T12:42:06.697Z,29.69
2022-07-28T12:44:38.200Z,30.00
2022-07-28T12:47:09.683Z,30.32
2022-07-28T12:49:41.037Z,30.70
2022-07-28T12:52:18.424Z,31.04
2022-07-28T12:54:55.489Z,31.23
2022-07-28T12:57:48.845Z,31.35
2022-07-28T13:00:22.677Z,31.40
2022-07-28T13:02:55.346Z,31.55
2022-07-28T13:05:31.006Z,31.67
2022-07-28T13:08:03.247Z,31.69
2022-07-28T13:10:35.609Z,31.78
2022-07-28T13:13:08.582Z,32.08
2022-07-28T13:15:39.413Z,32.35
2022-07-28T13:18:09.892Z,32.51
2022-07-28T13:20:49.843Z,32.60
2022-07-28T13:23:20.318Z,32.48
2022-07-28T13:25:52.696Z,32.15
2022-07-28T13:28:27.298Z,31.71
2022-07-28T13:30:58.049Z,31.29
2022-07-28T13:33:28.791Z,31.10
2022-07-28T13:36:00.949Z,31.16
2022-07-28T13:38:31.476Z,31.35
2022-07-28T13:41:02.358Z,31.71
2022-07-28T13:43:35.984Z,32.03
2022-07-28T13:46:07.762Z,32.35
2022-07-28T13:48:57.733Z,32.68
2022-07-28T13:51:29.976Z,33.12
2022-07-28T13:54:05.647Z,33.31
2022-07-28T13:56:37.224Z,33.03
2022-07-28T13:59:08.753Z,32.80
2022-07-28T14:01:41.203Z,32.80
2022-07-28T14:04:17.092Z,32.94
2022-07-28T14:06:48.163Z,33.11
2022-07-28T14:09:21.451Z,33.03
2022-07-28T14:11:53.744Z,32.77
2022-07-28T14:14:25.655Z,32.69
2022-07-28T14:16:56.637Z,32.91
2022-07-28T14:19:38.460Z,33.26
2022-07-28T14:22:13.827Z,33.65
2022-07-28T14:24:44.676Z,33.94
2022-07-28T14:27:15.614Z,34.26
2022-07-28T14:29:47.181Z,34.71
2022-07-28T14:32:17.814Z,35.04
2022-07-28T14:34:48.363Z,35.21
2022-07-28T14:37:19.569Z,35.39
2022-07-28T14:39:50.002Z,35.53
2022-07-28T14:42:20.729Z,35.66
2022-07-28T14:44:51.267Z,35.80
2022-07-28T14:47:22.628Z,35.94
2022-07-28T14:49:57.160Z,36.00
2022-07-28T14:52:29.692Z,35.93
2022-07-28T14:55:00.685Z,35.70
2022-07-28T14:57:50.215Z,35.29
2022-07-28T15:00:23.130Z,34.78
2022-07-28T15:02:54.185Z,34.26
2022-07-28T15:05:25.804Z,33.60
2022-07-28T15:07:56.816Z,32.96
2022-07-28T15:10:27.469Z,32.37
2022-07-28T15:12:57.982Z,31.95
2022-07-28T15:15:28.528Z,31.64
2022-07-28T15:17:59.879Z,31.19
2022-07-28T15:20:31.734Z,30.79
2022-07-28T15:23:02.477Z,30.52
2022-07-28T15:25:33.860Z,30.26
2022-07-28T15:28:05.466Z,29.94
2022-07-28T15:30:35.997Z,29.62
2022-07-28T15:33:13.693Z,29.29
2022-07-28T15:35:58.263Z,29.03
2022-07-28T15:38:31.690Z,28.80
2022-07-28T15:41:03.197Z,28.55
2022-07-28T15:43:34.890Z,28.27
2022-07-28T15:46:08.694Z,27.99
2022-07-28T15:48:41.397Z,27.77
2022-07-28T15:51:12.128Z,27.60
2022-07-28T15:53:42.701Z,27.44
2022-07-28T15:56:13.166Z,27.29
2022-07-28T15:58:44.167Z,27.20
2022-07-28T16:01:14.919Z,27.08
2022-07-28T16:03:45.530Z,26.99
2022-07-28T16:06:16.166Z,26.91
2022-07-28T16:08:46.888Z,26.83
2022-07-28T16:11:17.521Z,26.70
2022-07-28T16:13:48.362Z,26.62
2022-07-28T16:16:18.961Z,26.56
2022-07-28T16:18:50.100Z,26.46
2022-07-28T16:21:20.665Z,26.32
2022-07-28T16:23:54.981Z,26.17
2022-07-28T16:26:26.366Z,26.06
2022-07-28T16:28:59.426Z,26.01
2022-07-28T16:31:30.318Z,25.94
2022-07-28T16:34:01.128Z,25.90
2022-07-28T16:36:31.861Z,25.90
2022-07-28T16:39:03.990Z,25.90
2022-07-28T16:41:47.746Z,25.87
2022-07-28T16:44:19.585Z,25.83
2022-07-28T16:46:50.263Z,25.79
2022-07-28T16:49:21.098Z,25.79
2022-07-28T16:51:52.610Z,25.87
2022-07-28T16:54:23.472Z,25.95
2022-07-28T16:56:55.608Z,25.96
2022-07-28T16:59:37.058Z,25.93
2022-07-28T17:02:17.152Z,25.88
2022-07-28T17:04:48.254Z,25.79
2022-07-28T17:07:18.915Z,25.68
2022-07-28T17:09:49.514Z,25.53
2022-07-28T17:12:19.937Z,25.40
2022-07-28T17:14:50.919Z,25.30
2022-07-28T17:17:22.057Z,25.17
2022-07-28T17:19:52.794Z,25.09
2022-07-28T17:22:24.186Z,25.03
2022-07-28T17:24:54.969Z,24.97
2022-07-28T17:27:37.644Z,24.92
2022-07-28T17:30:10.707Z,24.88
2022-07-28T17:32:42.070Z,24.85
2022-07-28T17:35:34.125Z,24.80
2022-07-28T17:38:07.135Z,24.74
2022-07-28T17:40:38.563Z,24.68
2022-07-28T17:43:12.089Z,24.62
2022-07-28T17:45:42.919Z,24.57
2022-07-28T17:48:13.388Z,24.53
2022-07-28T17:50:44.764Z,24.47
2022-07-28T17:53:15.856Z,24.40
2022-07-28T17:55:57.945Z,24.33
2022-07-28T17:58:32.210Z,24.26
2022-07-28T18:01:10.335Z,24.19
2022-07-28T18:03:58.941Z,24.15
2022-07-28T18:06:33.722Z,24.09
2022-07-28T18:09:06.790Z,24.03
2022-07-28T18:11:55.643Z,23.97
2022-07-28T18:14:29.187Z,23.91
2022-07-28T18:17:00.685Z,23.85
2022-07-28T18:19:31.365Z,23.78
2022-07-28T18:22:02.349Z,23.73
2022-07-28T18:24:32.683Z,23.65
2022-07-28T18:27:05.533Z,23.58
2022-07-28T18:29:38.081Z,23.52
2022-07-28T18:32:10.247Z,23.45
2022-07-28T18:34:41.835Z,23.38
2022-07-28T18:37:13.059Z,23.32
2022-07-28T18:39:43.788Z,23.27
2022-07-28T18:42:14.520Z,23.21
2022-07-28T18:44:45.154Z,23.16
2022-07-28T18:47:15.815Z,23.10
2022-07-28T18:49:46.310Z,23.04
2022-07-28T18:52:17.250Z,22.98
2022-07-28T18:54:48.487Z,22.93
2022-07-28T18:57:19.222Z,22.88
2022-07-28T18:59:52.214Z,22.82
2022-07-28T19:02:21.689Z,22.78
2022-07-28T19:04:58.086Z,22.72
2022-07-28T19:07:28.612Z,22.67
2022-07-28T19:09:59.652Z,22.62
2022-07-28T19:12:31.788Z,22.56
2022-07-28T19:15:03.116Z,22.52
2022-07-28T19:17:34.283Z,22.46
2022-07-28T19:20:08.009Z,22.41
2022-07-28T19:22:38.846Z,22.37
2022-07-28T19:25:10.451Z,22.32
2022-07-28T19:27:40.969Z,22.27
2022-07-28T19:30:12.770Z,22.22
2022-07-28T19:32:43.428Z,22.17
2022-07-28T19:35:14.357Z,22.11
2022-07-28T19:37:45.295Z,22.07
2022-07-28T19:40:16.071Z,22.02
2022-07-28T19:42:48.734Z,21.97
2022-07-28T19:45:19.569Z,21.92
2022-07-28T19:47:50.274Z,21.86
2022-07-28T19:50:21.145Z,21.82
2022-07-28T19:52:51.801Z,21.77
2022-07-28T19:55:23.048Z,21.72
2022-07-28T19:57:55.451Z,21.66
2022-07-28T20:00:26.398Z,21.62
2022-07-28T20:02:57.234Z,21.56
2022-07-28T20:05:28.478Z,21.49
2022-07-28T20:07:59.004Z,21.44
2022-07-28T20:10:30.248Z,21.38
2022-07-28T20:13:00.885Z,21.32
2022-07-28T20:15:31.892Z,21.26
2022-07-28T20:18:03.161Z,21.20
2022-07-28T20:20:33.876Z,21.15
2022-07-28T20:23:05.395Z,21.11
2022-07-28T20:25:36.075Z,21.07
2022-07-28T20:28:06.977Z,21.02
2022-07-28T20:30:38.032Z,20.97
2022-07-28T20:33:08.905Z,20.93
2022-07-28T20:35:40.022Z,20.89
2022-07-28T20:38:10.891Z,20.85
2022-07-28T20:40:41.532Z,20.80
2022-07-28T20:43:12.241Z,20.76
2022-07-28T20:45:42.848Z,20.71
2022-07-28T20:48:14.463Z,20.66
2022-07-28T20:50:46.072Z,20.60
2022-07-28T20:53:16.421Z,20.55
2022-07-28T20:55:47.479Z,20.49
2022-07-28T20:58:18.583Z,20.46
2022-07-28T21:00:49.493Z,20.41
2022-07-28T21:03:21.895Z,20.35
2022-07-28T21:05:53.854Z,20.31
2022-07-28T21:08:25.926Z,20.25
2022-07-28T21:10:58.191Z,20.22
2022-07-28T21:13:28.819Z,20.18
2022-07-28T21:15:59.579Z,20.15
2022-07-28T21:18:30.394Z,20.12
2022-07-28T21:21:02.080Z,20.35
2022-07-28T21:23:32.570Z,21.52
2022-07-28T21:26:03.652Z,21.84
2022-07-28T21:28:51.451Z,21.45
2022-07-28T21:31:23.863Z,21.05
2022-07-28T21:33:54.666Z,20.80
2022-07-28T21:36:25.808Z,20.61
2022-07-28T21:38:56.414Z,20.46
2022-07-28T21:41:27.218Z,20.33
2022-07-28T21:44:07.514Z,20.21
2022-07-28T21:46:39.066Z,20.11
2022-07-28T21:49:09.850Z,20.02
2022-07-28T21:51:40.685Z,19.94
2022-07-28T21:54:11.249Z,20.15
2022-07-28T21:56:42.203Z,21.29
2022-07-28T21:59:12.834Z,21.57
2022-07-28T22:01:43.616Z,21.14
2022-07-28T22:04:14.610Z,20.77
2022-07-28T22:06:46.488Z,20.49
2022-07-28T22:09:17.404Z,20.28
2022-07-28T22:11:48.235Z,20.10
2022-07-28T22:14:19.188Z,19.96
2022-07-28T22:16:50.681Z,19.84
2022-07-28T22:19:21.360Z,19.99
2022-07-28T22:21:52.307Z,21.22
2022-07-28T22:24:24.979Z,22.04
2022-07-28T22:26:55.613Z,21.64
2022-07-28T22:29:26.239Z,21.06
2022-07-28T22:31:59.371Z,20.66
2022-07-28T22:34:30.976Z,20.36
2022-07-28T22:37:11.196Z,20.12
2022-07-28T22:39:43.721Z,19.93
2022-07-28T22:42:14.570Z,19.78
2022-07-28T22:44:45.218Z,19.85
2022-07-28T22:47:15.793Z,20.98
2022-07-28T22:49:46.235Z,21.53
2022-07-28T22:52:17.076Z,21.10
2022-07-28T22:57:36.460Z,20.20
2022-07-28T23:00:08.172Z,19.94
2022-07-28T23:02:38.641Z,19.74
2022-07-28T23:05:09.742Z,19.58
2022-07-28T23:07:50.905Z,19.44
2022-07-28T23:10:27.575Z,19.62
2022-07-28T23:12:58.777Z,20.83
2022-07-28T23:15:40.078Z,21.62
2022-07-28T23:18:14.217Z,21.20
2022-07-28T23:20:45.300Z,20.62
2022-07-28T23:23:18.706Z,20.16
2022-07-28T23:25:47.601Z,19.84
2022-07-28T23:28:18.653Z,19.59
2022-07-28T23:30:51.807Z,19.39
2022-07-28T23:33:54.596Z,19.51
2022-07-28T23:36:15.079Z,20.76
2022-07-28T23:38:58.027Z,20.88
2022-07-28T23:41:28.604Z,20.29
2022-07-28T23:43:59.404Z,19.81
2022-07-28T23:46:30.037Z,19.45
2022-07-28T23:49:01.838Z,19.21
2022-07-28T23:51:47.570Z,19.57
2022-07-28T23:54:19.409Z,20.88
2022-07-28T23:56:55.637Z,21.45
2022-07-28T23:59:26.519Z,20.90
